Buchanan, North Dakota
Current Conditions -  °F | °C
As of 12:56 AM on Thursday 23 Oct 2014 (Local Time) from KJMS Reporting Station
Clear Clear  
Wind Chill: 40°   Ceiling: Unl
Heat Index: 44°   Visibility: 10mi
Dew Point: 39°   Wind: 7mph
Humidity: 82%   Direction: 230°SW
Pressure: 29.89"   Gusts: NA
Location:  47.06°N, 98.83°W
Report Text: KJMS 230556Z AUTO 23006KT 10SM CLR 07/04 A2989 RMK AO2 SLP128 T00670039 10117 20044 401610044 50002
Loading
Personal Weather Stations






























Interactive Weather Map
Tropical Storm Tracking
New forecast layout! Learn more

10-Day Weather Forecast

Advertisements
Track Severe Weather on mobile